Time;durP1;ratioP1;P1;durP2;ratioP2;P2;SDS_P1;SDS_P2;PMS_P1;PMS_P2;Temp;Humidity;BMP_temperature;BMP_pressure;BME280_temperature;BME280_humidity;BME280_pressure;Samples;Min_cycle;Max_cycle;Signal;HPM_P1;HPM_P2
2023/06/20 00:00:13;;;;;;;5.22;4.57;;;26.10;52.10;;;;;;5027241;28;20465;-47
2023/06/20 00:02:41;;;;;;;5.32;4.68;;;26.00;51.90;;;;;;5021280;28;20100;-46
2023/06/20 00:05:08;;;;;;;6.60;5.70;;;26.00;52.10;;;;;;5027796;28;20049;-48
2023/06/20 00:07:37;;;;;;;5.43;4.93;;;26.00;52.00;;;;;;5026647;28;20048;-48
2023/06/20 00:10:05;;;;;;;5.10;4.65;;;25.90;51.70;;;;;;5025451;28;20120;-45
2023/06/20 00:12:33;;;;;;;5.15;4.65;;;25.90;51.70;;;;;;5023529;28;20623;-45
2023/06/20 00:15:02;;;;;;;5.55;4.97;;;25.90;52.30;;;;;;5028514;28;20041;-45
2023/06/20 00:17:33;;;;;;;6.00;5.15;;;25.90;51.90;;;;;;5026856;28;20056;-45
2023/06/20 00:20:00;;;;;;;5.90;5.28;;;25.80;51.90;;;;;;5022306;28;20120;-45
2023/06/20 00:22:27;;;;;;;5.70;5.20;;;25.80;52.10;;;;;;5026214;28;20675;-45
2023/06/20 00:24:58;;;;;;;6.85;5.22;;;25.80;52.30;;;;;;5023317;28;20049;-44
2023/06/20 00:27:29;;;;;;;6.00;5.50;;;25.80;52.30;;;;;;5022251;28;20108;-45
2023/06/20 00:29:57;;;;;;;6.32;5.03;;;25.80;52.30;;;;;;5010129;28;20077;-46
2023/06/20 00:32:24;;;;;;;6.28;5.50;;;25.80;52.50;;;;;;5008676;28;20080;-45
2023/06/20 00:34:58;;;;;;;5.93;5.35;;;25.70;52.30;;;;;;5008932;28;20550;-47
2023/06/20 00:37:26;;;;;;;7.38;6.07;;;25.70;52.40;;;;;;5008390;28;20095;-47
2023/06/20 00:39:57;;;;;;;6.32;5.55;;;25.70;52.10;;;;;;5009301;28;20041;-47
2023/06/20 00:42:26;;;;;;;8.60;5.75;;;25.70;52.40;;;;;;5020529;28;20413;-48
2023/06/20 00:44:58;;;;;;;5.97;5.43;;;25.70;52.40;;;;;;5009546;28;20136;-46
2023/06/20 00:47:26;;;;;;;6.75;6.10;;;25.60;52.40;;;;;;5008399;28;20049;-45
2023/06/20 00:49:56;;;;;;;6.25;5.72;;;25.60;52.60;;;;;;5004748;28;20072;-45
2023/06/20 00:52:24;;;;;;;6.28;5.68;;;25.60;52.90;;;;;;5020698;28;20092;-45
2023/06/20 00:54:53;;;;;;;6.78;6.07;;;25.60;53.00;;;;;;5008052;28;20052;-44
2023/06/20 00:57:27;;;;;;;5.97;5.38;;;25.60;53.10;;;;;;5025913;28;20045;-45
2023/06/20 00:59:56;;;;;;;6.53;5.68;;;25.60;53.20;;;;;;5008912;28;20049;-47
2023/06/20 01:02:23;;;;;;;7.30;6.22;;;25.50;53.10;;;;;;5021006;28;20116;-46
2023/06/20 01:04:50;;;;;;;8.63;6.03;;;25.50;53.10;;;;;;5012490;28;20045;-45
2023/06/20 01:07:33;;;;;;;8.25;5.78;;;25.50;52.90;;;;;;5010773;28;20046;-45
2023/06/20 01:10:13;;;;;;;9.40;7.15;;;25.50;52.80;;;;;;5005334;28;20042;-45
2023/06/20 01:13:03;;;;;;;8.15;7.35;;;25.50;51.50;;;;;;5005754;28;20045;-46
2023/06/20 01:15:40;;;;;;;7.35;6.65;;;25.50;51.10;;;;;;5011155;28;20052;-45
2023/06/20 01:18:30;;;;;;;7.93;6.65;;;25.50;51.70;;;;;;5004790;28;20132;-47
2023/06/20 01:21:07;;;;;;;7.13;6.35;;;25.60;51.10;;;;;;5007822;28;20510;-49
2023/06/20 01:23:48;;;;;;;8.75;7.85;;;25.60;50.70;;;;;;5009086;28;20049;-45
2023/06/20 01:26:49;;;;;;;8.67;6.83;;;25.60;51.40;;;;;;5011104;28;20046;-45
2023/06/20 01:29:38;;;;;;;9.15;7.20;;;25.60;51.70;;;;;;5012148;28;20148;-45
2023/06/20 01:32:11;;;;;;;7.78;6.97;;;25.60;51.70;;;;;;5025711;28;20074;-44
2023/06/20 01:34:47;;;;;;;7.70;6.97;;;25.60;51.70;;;;;;5011358;28;20052;-45
2023/06/20 01:37:19;;;;;;;6.88;6.05;;;25.60;51.90;;;;;;5011010;28;20048;-46
2023/06/20 01:39:54;;;;;;;6.82;6.22;;;25.60;51.80;;;;;;5012567;28;20068;-44
2023/06/20 01:42:24;;;;;;;7.25;6.53;;;25.60;51.90;;;;;;5023569;28;20099;-46
2023/06/20 01:44:53;;;;;;;7.47;6.78;;;25.60;52.20;;;;;;5029542;28;20107;-47
2023/06/20 01:47:22;;;;;;;7.30;6.65;;;25.60;52.20;;;;;;5010957;28;20145;-46
2023/06/20 01:49:52;;;;;;;7.35;6.65;;;25.60;52.40;;;;;;5025570;28;20045;-45
2023/06/20 01:52:23;;;;;;;6.85;6.15;;;25.60;52.60;;;;;;5026579;28;20041;-45
2023/06/20 01:54:51;;;;;;;9.50;7.00;;;25.60;52.50;;;;;;5009696;28;20037;-45
2023/06/20 01:57:21;;;;;;;7.57;6.88;;;25.60;52.40;;;;;;5010706;28;20037;-45
2023/06/20 01:59:49;;;;;;;7.70;7.00;;;25.50;52.60;;;;;;5012151;28;20037;-45
2023/06/20 02:02:22;;;;;;;7.95;7.20;;;25.50;52.50;;;;;;5028605;28;20037;-46
2023/06/20 02:04:52;;;;;;;8.48;7.60;;;25.40;52.50;;;;;;5006512;28;20132;-45
2023/06/20 02:07:23;;;;;;;7.90;7.10;;;25.40;52.30;;;;;;5028103;28;20053;-46
2023/06/20 02:09:50;;;;;;;8.32;7.13;;;25.40;52.50;;;;;;5011978;28;20735;-47
2023/06/20 02:12:19;;;;;;;7.28;6.57;;;25.40;52.60;;;;;;5009950;28;20037;-45
2023/06/20 02:14:52;;;;;;;7.88;7.07;;;25.30;52.50;;;;;;5028664;28;20037;-45
2023/06/20 02:17:19;;;;;;;7.82;6.32;;;25.30;52.60;;;;;;5010728;28;20033;-45
2023/06/20 02:19:49;;;;;;;7.45;6.80;;;25.30;52.70;;;;;;5010262;28;20041;-46
2023/06/20 02:22:23;;;;;;;8.02;7.25;;;25.30;53.00;;;;;;5026111;28;20041;-45
2023/06/20 02:24:58;;;;;;;7.05;6.45;;;25.30;53.30;;;;;;5010680;28;20655;-44
2023/06/20 02:27:29;;;;;;;8.18;7.38;;;25.30;53.40;;;;;;5023169;28;20501;-46
2023/06/20 02:30:03;;;;;;;7.50;6.55;;;25.30;53.30;;;;;;5014035;28;20052;-44
2023/06/20 02:32:31;;;;;;;7.78;6.97;;;25.20;53.30;;;;;;5033747;28;20136;-44
2023/06/20 02:34:59;;;;;;;7.65;7.03;;;25.20;53.40;;;;;;5015601;28;20048;-48
2023/06/20 02:37:29;;;;;;;7.57;6.70;;;25.20;53.40;;;;;;5013504;28;20042;-46
2023/06/20 02:39:56;;;;;;;7.15;6.45;;;25.10;53.50;;;;;;5027556;28;20042;-46
2023/06/20 02:42:29;;;;;;;7.57;6.28;;;25.10;53.70;;;;;;5023398;28;20050;-46
2023/06/20 02:44:55;;;;;;;7.95;7.15;;;25.10;53.60;;;;;;5013907;28;20081;-49
2023/06/20 02:47:46;;;;;;;6.80;6.20;;;25.10;53.80;;;;;;5030950;28;20049;-46
2023/06/20 02:50:27;;;;;;;7.90;7.10;;;25.10;54.20;;;;;;5027435;28;20073;-46
2023/06/20 02:53:08;;;;;;;7.97;7.22;;;25.10;54.60;;;;;;5028525;28;20880;-46
2023/06/20 02:55:53;;;;;;;7.30;6.35;;;25.00;54.80;;;;;;5010656;28;20575;-47
2023/06/20 02:58:25;;;;;;;6.35;5.75;;;25.00;54.70;;;;;;5026863;28;20048;-46
2023/06/20 03:00:53;;;;;;;7.25;6.55;;;25.00;55.20;;;;;;5012042;28;22320;-47
2023/06/20 03:03:32;;;;;;;5.85;5.30;;;25.00;55.40;;;;;;5005478;28;20173;-45
2023/06/20 03:06:01;;;;;;;5.47;4.97;;;25.00;55.20;;;;;;5014395;28;20145;-49
2023/06/20 03:08:30;;;;;;;5.53;4.88;;;24.90;55.60;;;;;;5014654;28;20051;-47
2023/06/20 03:10:58;;;;;;;4.47;4.07;;;24.90;55.60;;;;;;5013892;28;20049;-45
2023/06/20 03:13:27;;;;;;;5.05;4.57;;;25.00;55.60;;;;;;5014014;28;20505;-46
2023/06/20 03:15:58;;;;;;;4.25;3.78;;;25.00;55.90;;;;;;5014601;28;20103;-47
2023/06/20 03:18:31;;;;;;;7.53;4.82;;;25.00;56.30;;;;;;5027216;28;20070;-49
2023/06/20 03:21:03;;;;;;;5.57;5.07;;;25.00;57.00;;;;;;5013307;28;20575;-45
2023/06/20 03:23:52;;;;;;;5.47;4.30;;;25.10;57.10;;;;;;5009719;28;20060;-47
2023/06/20 03:26:21;;;;;;;4.88;4.47;;;25.10;57.60;;;;;;5008333;28;20037;-46
2023/06/20 03:28:48;;;;;;;4.55;4.15;;;25.10;58.00;;;;;;5014244;28;20041;-49
2023/06/20 03:31:17;;;;;;;5.28;4.85;;;25.10;58.10;;;;;;5012099;28;20038;-49
2023/06/20 03:33:44;;;;;;;4.70;4.30;;;25.10;57.70;;;;;;5013935;28;20041;-49
2023/06/20 03:36:12;;;;;;;5.00;4.50;;;25.10;58.10;;;;;;5013483;28;20483;-44
2023/06/20 03:38:46;;;;;;;4.65;4.13;;;25.10;58.10;;;;;;5013346;28;20087;-48
2023/06/20 03:41:16;;;;;;;5.03;4.20;;;25.10;57.60;;;;;;5011135;28;20042;-44
2023/06/20 03:43:45;;;;;;;4.80;4.32;;;25.10;57.40;;;;;;5013591;28;20037;-47
2023/06/20 03:46:15;;;;;;;5.85;4.80;;;25.10;57.20;;;;;;5013258;28;20038;-45
2023/06/20 03:48:45;;;;;;;5.25;4.35;;;25.10;57.10;;;;;;5013411;28;20037;-45
2023/06/20 03:51:15;;;;;;;4.97;4.57;;;25.00;57.30;;;;;;5021404;28;20480;-47
2023/06/20 03:53:42;;;;;;;5.57;4.30;;;25.10;57.30;;;;;;5012051;28;20510;-47
2023/06/20 03:56:09;;;;;;;4.97;4.53;;;25.10;57.10;;;;;;5012252;28;20044;-45
2023/06/20 03:58:36;;;;;;;4.88;4.47;;;25.10;57.60;;;;;;4993705;28;20038;-46
2023/06/20 04:01:06;;;;;;;4.70;4.30;;;25.10;57.40;;;;;;5029560;28;20042;-44
2023/06/20 04:03:36;;;;;;;4.35;3.95;;;25.10;57.20;;;;;;5025328;23;20552;-44
2023/06/20 04:06:06;;;;;;;4.65;4.25;;;25.00;57.60;;;;;;4991267;28;20054;-43
2023/06/20 04:08:33;;;;;;;4.05;3.75;;;25.10;58.00;;;;;;4990933;28;20034;-43
2023/06/20 04:11:02;;;;;;;3.88;3.58;;;25.10;57.20;;;;;;4989329;28;20097;-42
2023/06/20 04:13:28;;;;;;;4.03;3.70;;;25.10;57.20;;;;;;4986804;28;20561;-45
2023/06/20 04:15:55;;;;;;;4.25;3.70;;;25.10;57.60;;;;;;4990528;28;20562;-45
2023/06/20 04:18:22;;;;;;;3.88;3.58;;;25.00;57.60;;;;;;4991512;28;20042;-43
2023/06/20 04:20:54;;;;;;;3.80;3.38;;;25.00;57.80;;;;;;4984243;28;20038;-44
2023/06/20 04:23:20;;;;;;;4.10;3.55;;;25.10;58.00;;;;;;4988752;28;20069;-44
2023/06/20 04:25:47;;;;;;;4.40;4.00;;;25.10;57.90;;;;;;4990282;28;20134;-45
2023/06/20 04:28:17;;;;;;;3.83;3.30;;;25.10;57.70;;;;;;4970873;28;20414;-43
2023/06/20 04:30:55;;;;;;;4.68;3.60;;;25.10;57.80;;;;;;4990064;28;20042;-46
2023/06/20 04:33:22;;;;;;;4.97;3.20;;;25.10;57.90;;;;;;4989656;28;20085;-43
2023/06/20 04:35:52;;;;;;;3.70;3.40;;;25.10;58.10;;;;;;4986498;28;20046;-47
2023/06/20 04:38:18;;;;;;;3.38;3.08;;;25.00;58.00;;;;;;4989784;28;20556;-43
2023/06/20 04:40:45;;;;;;;3.65;2.90;;;25.10;58.40;;;;;;4989702;28;20444;-44
2023/06/20 04:43:12;;;;;;;3.50;3.20;;;25.10;58.50;;;;;;4972460;28;20081;-47
2023/06/20 04:45:41;;;;;;;3.38;3.15;;;25.10;59.00;;;;;;4990696;28;20607;-43
2023/06/20 04:48:08;;;;;;;3.70;3.28;;;25.10;58.70;;;;;;4990879;28;20174;-43
2023/06/20 04:50:35;;;;;;;3.50;3.25;;;25.10;58.90;;;;;;4990568;28;20038;-43
2023/06/20 04:53:04;;;;;;;4.28;3.30;;;25.10;58.90;;;;;;4981218;28;20097;-42
2023/06/20 04:55:31;;;;;;;4.78;3.05;;;25.10;59.70;;;;;;4986238;28;20133;-45
2023/06/20 04:57:58;;;;;;;3.38;3.08;;;25.10;59.20;;;;;;5004089;28;20046;-43
2023/06/20 05:00:26;;;;;;;4.18;3.10;;;25.10;59.20;;;;;;4989788;28;20053;-43
2023/06/20 05:02:57;;;;;;;3.65;3.35;;;25.10;59.10;;;;;;5003125;28;20097;-44
2023/06/20 05:05:29;;;;;;;3.15;2.92;;;25.10;59.50;;;;;;4990178;28;20048;-42
2023/06/20 05:08:01;;;;;;;5.22;4.00;;;25.10;59.60;;;;;;4989028;28;20046;-42
2023/06/20 05:10:28;;;;;;;4.03;3.25;;;25.20;59.90;;;;;;4986070;28;20097;-42
2023/06/20 05:12:59;;;;;;;4.40;3.10;;;25.20;59.70;;;;;;4987717;28;20054;-46
2023/06/20 05:15:26;;;;;;;4.47;3.53;;;25.30;60.00;;;;;;4989861;28;20073;-42
2023/06/20 05:17:55;;;;;;;4.00;3.70;;;25.30;59.80;;;;;;4987988;28;20042;-45
2023/06/20 05:20:25;;;;;;;5.28;3.45;;;25.20;59.60;;;;;;4985018;28;20046;-44
2023/06/20 05:22:52;;;;;;;4.80;3.67;;;25.30;59.80;;;;;;4977908;28;20093;-43
2023/06/20 05:25:19;;;;;;;3.83;3.00;;;25.30;60.40;;;;;;4988233;28;20046;-42
2023/06/20 05:27:47;;;;;;;4.65;3.08;;;25.30;60.30;;;;;;4988466;28;20137;-43
2023/06/20 05:30:16;;;;;;;4.30;3.72;;;25.30;59.90;;;;;;4988171;28;20044;-43
2023/06/20 05:32:45;;;;;;;4.80;3.90;;;25.40;59.80;;;;;;4989511;28;20667;-47
2023/06/20 05:35:12;;;;;;;3.97;3.58;;;25.30;59.60;;;;;;4987844;28;20054;-43
2023/06/20 05:37:40;;;;;;;3.47;3.17;;;25.40;59.90;;;;;;4988212;28;20566;-45
2023/06/20 05:40:09;;;;;;;4.13;3.30;;;25.30;59.50;;;;;;4989573;28;20093;-44
2023/06/20 05:42:36;;;;;;;4.90;3.58;;;25.30;60.00;;;;;;4989405;28;20503;-46
2023/06/20 05:45:06;;;;;;;3.55;3.25;;;25.30;59.60;;;;;;4989237;28;20046;-46
2023/06/20 05:47:32;;;;;;;3.80;3.50;;;25.30;59.60;;;;;;4986658;28;20058;-46
2023/06/20 05:50:03;;;;;;;3.83;3.42;;;25.30;59.50;;;;;;4989288;28;20054;-44
2023/06/20 05:52:35;;;;;;;4.38;3.88;;;25.30;59.70;;;;;;4989130;28;20491;-44
2023/06/20 05:55:03;;;;;;;;;;;25.40;59.80;;;;;;4984772;28;20423;-45
2023/06/20 05:57:42;;;;;;;3.05;2.85;;;25.40;59.20;;;;;;4989522;28;19922;-46
2023/06/20 06:00:12;;;;;;;3.25;3.00;;;25.40;59.10;;;;;;4989329;28;20137;-42
2023/06/20 06:02:47;;;;;;;3.75;3.45;;;25.40;59.20;;;;;;4986587;28;20096;-45
2023/06/20 06:05:14;;;;;;;3.00;2.78;;;25.40;59.20;;;;;;4992038;28;20089;-44
2023/06/20 06:07:41;;;;;;;3.28;3.08;;;25.40;59.30;;;;;;4992873;28;20124;-43
2023/06/20 06:10:13;;;;;;;3.80;2.78;;;25.40;59.10;;;;;;4994050;28;20056;-43
2023/06/20 06:12:44;;;;;;;6.43;3.45;;;25.50;59.30;;;;;;4988834;28;20034;-43
2023/06/20 06:15:13;;;;;;;4.18;3.28;;;25.50;59.60;;;;;;4994863;28;20046;-41
2023/06/20 06:17:40;;;;;;;3.15;2.85;;;25.50;58.70;;;;;;4994878;28;20038;-43
2023/06/20 06:20:17;;;;;;;4.07;3.78;;;25.60;58.70;;;;;;4993961;28;20126;-42
2023/06/20 06:22:48;;;;;;;3.05;2.85;;;25.60;58.30;;;;;;4995883;28;20038;-44
2023/06/20 06:25:17;;;;;;;4.27;3.00;;;25.60;58.30;;;;;;4988903;28;20039;-41
2023/06/20 06:27:48;;;;;;;3.13;2.88;;;25.60;58.00;;;;;;4993414;28;20049;-45
2023/06/20 06:30:15;;;;;;;3.63;3.33;;;25.70;57.50;;;;;;4987157;28;20081;-43
2023/06/20 06:32:47;;;;;;;3.05;2.85;;;25.70;57.40;;;;;;4989605;28;20035;-45
2023/06/20 06:35:16;;;;;;;2.97;2.78;;;25.70;57.30;;;;;;4988000;28;20495;-45
2023/06/20 06:37:43;;;;;;;3.70;3.40;;;25.70;57.10;;;;;;4986130;28;20114;-43
2023/06/20 06:40:12;;;;;;;3.00;2.80;;;25.80;57.10;;;;;;4989211;28;20081;-45
2023/06/20 06:42:39;;;;;;;3.00;2.80;;;25.80;56.80;;;;;;4984587;28;20047;-45
2023/06/20 06:45:09;;;;;;;2.92;2.72;;;25.80;56.60;;;;;;4985517;28;20124;-43
2023/06/20 06:47:35;;;;;;;2.85;2.65;;;25.90;56.80;;;;;;4987290;28;20121;-45
2023/06/20 06:50:06;;;;;;;2.75;2.55;;;25.90;56.50;;;;;;4987763;28;20411;-44
2023/06/20 06:52:36;;;;;;;2.90;2.70;;;25.90;55.90;;;;;;4984516;28;20063;-44
2023/06/20 06:55:04;;;;;;;3.22;2.53;;;25.90;56.20;;;;;;4990873;28;20053;-43
2023/06/20 06:57:33;;;;;;;2.75;2.55;;;26.00;56.00;;;;;;4986884;28;20039;-47
2023/06/20 07:00:09;;;;;;;2.88;2.60;;;26.00;55.90;;;;;;4991430;28;20649;-44
2023/06/20 07:02:36;;;;;;;3.10;2.80;;;26.00;56.00;;;;;;4989901;28;20038;-42
2023/06/20 07:05:11;;;;;;;2.97;2.78;;;26.10;56.30;;;;;;4992966;28;20073;-46
2023/06/20 07:07:40;;;;;;;2.80;2.60;;;26.10;56.00;;;;;;4992477;28;20098;-43
2023/06/20 07:10:10;;;;;;;3.10;2.90;;;26.10;55.90;;;;;;4993192;28;20066;-46
2023/06/20 07:12:39;;;;;;;3.50;3.20;;;26.20;55.80;;;;;;4994442;28;20297;-42
2023/06/20 07:15:06;;;;;;;2.90;2.70;;;26.20;55.60;;;;;;4992400;28;20038;-44
2023/06/20 07:17:33;;;;;;;3.40;3.10;;;26.30;55.30;;;;;;4992258;28;20423;-43
2023/06/20 07:20:08;;;;;;;3.40;3.08;;;26.30;55.30;;;;;;4992897;28;20051;-47
2023/06/20 07:22:42;;;;;;;4.07;3.78;;;26.40;55.50;;;;;;4990345;28;20406;-44
2023/06/20 07:25:13;;;;;;;4.43;3.90;;;26.50;55.20;;;;;;4986631;28;20054;-44
2023/06/20 07:27:45;;;;;;;3.65;3.35;;;26.50;55.40;;;;;;4992495;28;20750;-45
2023/06/20 07:30:14;;;;;;;3.40;3.10;;;26.50;55.30;;;;;;4987540;28;20469;-47
2023/06/20 07:32:48;;;;;;;3.42;3.20;;;26.60;55.10;;;;;;4992126;28;20443;-47
2023/06/20 07:35:15;;;;;;;3.08;2.88;;;26.60;55.00;;;;;;4991459;28;20053;-43
2023/06/20 07:37:43;;;;;;;3.83;3.53;;;26.70;55.00;;;;;;4992382;28;20444;-43
2023/06/20 07:40:10;;;;;;;4.38;3.78;;;26.70;55.10;;;;;;4992783;28;20049;-43
2023/06/20 07:42:39;;;;;;;3.95;3.55;;;26.80;54.90;;;;;;4992417;28;20061;-44
2023/06/20 07:45:11;;;;;;;4.18;3.88;;;26.80;55.10;;;;;;4990977;28;20054;-48
2023/06/20 07:47:41;;;;;;;4.03;3.72;;;26.80;55.10;;;;;;4990696;28;20078;-43
2023/06/20 07:50:09;;;;;;;3.67;3.03;;;26.90;54.80;;;;;;4992474;28;20122;-43
2023/06/20 07:52:38;;;;;;;3.88;3.58;;;26.90;54.90;;;;;;4985841;28;20122;-43
2023/06/20 07:55:05;;;;;;;3.17;2.97;;;26.90;54.50;;;;;;4986623;28;20129;-43
2023/06/20 07:57:53;;;;;;;3.58;3.28;;;26.90;54.10;;;;;;4984073;28;20046;-44
2023/06/20 08:00:27;;;;;;;3.33;3.03;;;27.00;54.20;;;;;;4986910;28;20439;-44
2023/06/20 08:03:03;;;;;;;3.63;3.42;;;27.00;54.30;;;;;;4989026;28;20542;-44
2023/06/20 08:05:30;;;;;;;5.13;3.40;;;27.00;54.40;;;;;;4988034;28;20093;-44
2023/06/20 08:08:00;;;;;;;4.25;3.95;;;27.10;54.40;;;;;;4984981;28;20758;-47
2023/06/20 08:10:32;;;;;;;4.00;3.70;;;27.10;54.30;;;;;;4985711;28;20042;-44
2023/06/20 08:12:59;;;;;;;3.30;3.10;;;27.10;54.20;;;;;;4989287;28;20052;-43
2023/06/20 08:15:29;;;;;;;7.78;3.95;;;27.10;54.10;;;;;;4985624;28;20042;-45
2023/06/20 08:17:55;;;;;;;4.57;3.67;;;27.20;54.20;;;;;;4984339;28;20451;-44
2023/06/20 08:20:27;;;;;;;4.30;3.65;;;27.30;54.30;;;;;;4984305;28;20045;-43
2023/06/20 08:22:58;;;;;;;4.13;3.42;;;27.30;54.20;;;;;;4990100;28;20045;-43
2023/06/20 08:25:27;;;;;;;4.15;3.85;;;27.40;53.90;;;;;;4988432;28;20039;-46
2023/06/20 08:27:57;;;;;;;4.18;3.58;;;27.50;54.10;;;;;;4983391;28;20081;-43
2023/06/20 08:30:39;;;;;;;4.35;3.72;;;27.60;54.20;;;;;;4992613;28;20061;-47
2023/06/20 08:33:06;;;;;;;4.47;4.10;;;27.60;54.20;;;;;;4991308;28;20070;-45
2023/06/20 08:35:35;;;;;;;4.28;3.90;;;27.60;53.80;;;;;;4991964;28;20058;-42
2023/06/20 08:38:05;;;;;;;3.87;3.53;;;27.70;53.80;;;;;;4988070;28;20074;-43
2023/06/20 08:40:34;;;;;;;3.90;3.60;;;27.70;53.70;;;;;;4992567;28;20082;-42
2023/06/20 08:43:01;;;;;;;4.18;3.78;;;27.80;53.20;;;;;;4990300;28;20038;-43
2023/06/20 08:45:28;;;;;;;3.80;3.50;;;27.90;53.40;;;;;;4991817;28;20065;-42
2023/06/20 08:48:04;;;;;;;4.47;4.07;;;27.90;53.70;;;;;;4986264;28;20105;-42
2023/06/20 08:50:32;;;;;;;4.40;4.00;;;28.00;53.50;;;;;;4991238;28;20042;-45
2023/06/20 08:53:04;;;;;;;4.63;4.28;;;28.00;53.60;;;;;;4989744;28;20097;-44
2023/06/20 08:55:32;;;;;;;4.40;4.00;;;28.10;53.30;;;;;;4983965;28;20050;-42
2023/06/20 08:58:09;;;;;;;4.40;4.10;;;28.20;53.50;;;;;;4990778;28;20069;-43
2023/06/20 09:00:38;;;;;;;7.28;4.78;;;28.20;53.10;;;;;;4985199;28;20062;-42
2023/06/20 09:03:07;;;;;;;5.32;4.80;;;28.30;53.50;;;;;;4984854;28;20051;-47
2023/06/20 09:05:46;;;;;;;5.07;4.57;;;28.40;53.00;;;;;;4989926;28;20046;-45
2023/06/20 09:08:14;;;;;;;4.78;4.38;;;28.50;53.00;;;;;;4990401;28;20560;-47
2023/06/20 09:10:42;;;;;;;6.13;4.32;;;28.60;53.00;;;;;;4987352;28;20050;-47
2023/06/20 09:13:14;;;;;;;5.38;4.30;;;28.70;52.90;;;;;;4989715;28;20045;-45
2023/06/20 09:15:41;;;;;;;4.85;4.45;;;28.80;52.70;;;;;;4991488;28;20062;-48
2023/06/20 09:18:12;;;;;;;4.85;4.25;;;28.90;52.70;;;;;;4988467;28;20636;-43
2023/06/20 09:20:40;;;;;;;4.57;4.17;;;28.90;52.30;;;;;;4989673;28;20451;-44
2023/06/20 09:23:14;;;;;;;4.95;4.63;;;29.00;52.40;;;;;;4989567;28;20058;-45
2023/06/20 09:25:45;;;;;;;5.25;4.88;;;29.00;52.10;;;;;;4986167;28;20046;-45
2023/06/20 09:28:17;;;;;;;5.22;4.82;;;29.10;52.00;;;;;;4987010;28;20077;-46
2023/06/20 09:30:50;;;;;;;5.20;4.70;;;29.20;51.90;;;;;;4986971;28;20041;-43
2023/06/20 09:33:17;;;;;;;5.90;5.40;;;29.20;51.80;;;;;;4989631;28;20069;-46
2023/06/20 09:35:44;;;;;;;5.22;4.82;;;29.30;51.60;;;;;;4991284;28;20058;-43
2023/06/20 09:38:14;;;;;;;5.28;4.70;;;29.40;51.70;;;;;;4991318;28;20537;-45
2023/06/20 09:40:45;;;;;;;5.18;4.78;;;29.40;52.00;;;;;;4995085;28;20260;-43
2023/06/20 09:43:23;;;;;;;4.95;4.57;;;29.50;51.30;;;;;;4993919;28;20499;-43
2023/06/20 09:46:01;;;;;;;4.97;4.53;;;29.60;51.10;;;;;;4994092;28;20146;-43
2023/06/20 09:48:35;;;;;;;4.68;4.35;;;29.70;50.90;;;;;;5006074;28;20522;-45
2023/06/20 09:51:03;;;;;;;5.60;5.10;;;29.80;51.00;;;;;;4993892;28;20042;-45
2023/06/20 09:53:35;;;;;;;5.10;4.70;;;29.80;50.70;;;;;;4991154;28;20042;-43
2023/06/20 09:56:05;;;;;;;4.13;3.83;;;29.90;50.60;;;;;;4993174;28;20050;-42
2023/06/20 09:58:42;;;;;;;5.03;4.63;;;30.00;50.40;;;;;;5002258;28;20045;-42
2023/06/20 10:01:20;;;;;;;5.18;4.82;;;30.10;50.50;;;;;;4992550;28;20506;-44
2023/06/20 10:03:52;;;;;;;5.60;5.10;;;30.20;50.70;;;;;;4989692;28;20081;-44
2023/06/20 10:06:26;;;;;;;4.70;4.40;;;30.30;50.50;;;;;;4993659;28;21902;-46
2023/06/20 10:08:53;;;;;;;4.72;4.43;;;30.40;50.30;;;;;;4993594;28;20070;-45
2023/06/20 10:11:22;;;;;;;4.75;4.45;;;30.60;50.10;;;;;;4990672;28;20043;-44
2023/06/20 10:13:53;;;;;;;5.03;4.72;;;30.60;49.20;;;;;;4996568;28;20069;-46
2023/06/20 10:16:25;;;;;;;4.85;4.35;;;30.70;48.60;;;;;;4993371;28;20125;-43
2023/06/20 10:18:51;;;;;;;5.50;5.00;;;30.70;48.20;;;;;;4994844;28;20050;-46
2023/06/20 10:21:57;;;;;;;4.90;4.50;;;30.70;48.50;;;;;;4994431;28;20038;-44
2023/06/20 10:24:34;;;;;;;4.32;3.97;;;30.60;48.80;;;;;;4982463;28;20104;-46
2023/06/20 10:27:00;;;;;;;5.00;4.60;;;30.60;48.80;;;;;;4994548;28;20089;-43
2023/06/20 10:29:39;;;;;;;4.50;4.10;;;30.60;48.30;;;;;;4985551;28;20046;-47
2023/06/20 10:32:12;;;;;;;4.40;3.85;;;30.60;47.70;;;;;;4992778;28;20152;-45
2023/06/20 10:34:50;;;;;;;4.32;4.00;;;30.70;48.10;;;;;;4991955;28;20779;-47
2023/06/20 10:37:36;;;;;;;3.75;3.45;;;30.70;47.80;;;;;;4991619;28;20145;-45
2023/06/20 10:40:06;;;;;;;4.40;4.00;;;30.70;47.70;;;;;;4991904;28;20747;-43
2023/06/20 10:42:42;;;;;;;3.83;3.53;;;30.70;47.30;;;;;;4993203;28;20088;-43
2023/06/20 10:45:21;;;;;;;3.65;3.35;;;30.80;47.20;;;;;;4993085;28;20084;-43
2023/06/20 10:47:48;;;;;;;3.03;2.85;;;30.80;47.30;;;;;;4989902;28;20454;-44
2023/06/20 10:50:18;;;;;;;2.88;2.67;;;30.80;46.60;;;;;;4990118;28;20078;-47
2023/06/20 10:52:45;;;;;;;3.65;3.45;;;30.80;46.20;;;;;;4993632;28;20133;-46
2023/06/20 10:55:28;;;;;;;2.97;2.78;;;30.80;46.80;;;;;;4984538;28;20066;-47
2023/06/20 10:57:56;;;;;;;2.90;2.70;;;31.00;47.10;;;;;;4993590;28;20507;-44
2023/06/20 11:00:25;;;;;;;3.03;2.83;;;31.00;46.60;;;;;;4993104;28;20070;-43
2023/06/20 11:02:55;;;;;;;;;;;31.10;46.60;;;;;;5008537;23;20046;-43
2023/06/20 11:05:27;;;;;;;2.65;2.47;;;31.20;47.10;;;;;;5021358;28;19925;-44
2023/06/20 11:08:04;;;;;;;2.60;2.45;;;31.30;45.80;;;;;;5032529;28;20052;-43
2023/06/20 11:10:36;;;;;;;3.08;2.88;;;31.40;45.30;;;;;;5032251;28;20060;-43
2023/06/20 11:13:05;;;;;;;2.83;2.58;;;31.40;45.20;;;;;;5030242;28;20405;-43
2023/06/20 11:15:35;;;;;;;2.90;2.70;;;31.50;44.80;;;;;;5027937;28;20046;-44
2023/06/20 11:18:06;;;;;;;2.83;2.63;;;31.50;44.40;;;;;;5032235;28;20057;-43
2023/06/20 11:20:43;;;;;;;4.57;3.10;;;31.60;44.50;;;;;;5029967;28;20047;-45
2023/06/20 11:23:12;;;;;;;2.90;2.70;;;31.70;44.40;;;;;;5027899;28;20646;-44
2023/06/20 11:25:41;;;;;;;3.67;3.05;;;31.70;44.80;;;;;;5030035;28;20088;-43
2023/06/20 11:28:17;;;;;;;2.30;2.10;;;31.80;44.10;;;;;;5029120;28;20099;-44
2023/06/20 11:30:47;;;;;;;2.92;2.72;;;31.80;44.40;;;;;;5029015;28;20037;-44
2023/06/20 11:33:16;;;;;;;2.90;2.70;;;31.90;44.30;;;;;;5032027;28;20046;-48
2023/06/20 11:35:49;;;;;;;2.60;2.40;;;32.00;43.50;;;;;;5031644;28;20029;-43
2023/06/20 11:38:23;;;;;;;3.05;2.85;;;32.00;42.90;;;;;;5028533;28;20045;-43
2023/06/20 11:41:29;;;;;;;2.55;2.10;;;32.00;42.80;;;;;;5031012;28;20131;-45
2023/06/20 11:44:01;;;;;;;3.72;2.63;;;32.10;43.20;;;;;;5022531;28;20077;-44
2023/06/20 11:46:31;;;;;;;4.15;2.78;;;32.10;43.20;;;;;;5027121;28;20083;-45
2023/06/20 11:48:59;;;;;;;3.58;2.90;;;32.30;43.50;;;;;;5030257;28;20438;-46
2023/06/20 11:51:32;;;;;;;2.65;2.45;;;32.30;44.00;;;;;;5028050;28;20045;-44
2023/06/20 11:54:12;;;;;;;2.92;2.72;;;32.40;43.70;;;;;;5028415;28;20085;-44
2023/06/20 11:56:39;;;;;;;2.63;2.47;;;32.50;43.00;;;;;;5024788;28;20567;-43
2023/06/20 11:59:08;;;;;;;3.05;2.85;;;32.60;43.00;;;;;;5031268;28;20069;-46
2023/06/20 12:01:35;;;;;;;2.50;2.30;;;32.70;42.60;;;;;;5020246;28;20071;-46
2023/06/20 12:04:06;;;;;;;3.15;2.72;;;32.70;42.40;;;;;;5029934;28;20072;-44
2023/06/20 12:06:44;;;;;;;3.25;2.20;;;32.90;41.70;;;;;;5030561;28;20103;-44
2023/06/20 12:09:16;;;;;;;4.07;2.35;;;33.00;41.60;;;;;;5031786;28;20049;-43
2023/06/20 12:11:49;;;;;;;2.15;2.05;;;33.00;41.20;;;;;;5028249;28;20141;-44
2023/06/20 12:14:17;;;;;;;;;;;33.20;41.40;;;;;;5029514;28;20033;-46
2023/06/20 12:16:44;;;;;;;3.10;2.90;;;33.30;42.60;;;;;;5030892;28;20431;-45
2023/06/20 12:19:13;;;;;;;2.60;2.40;;;33.40;41.40;;;;;;5030690;28;20562;-45
2023/06/20 12:21:43;;;;;;;3.08;2.85;;;33.50;41.00;;;;;;5028195;28;20409;-45
2023/06/20 12:24:12;;;;;;;3.30;2.53;;;33.60;41.20;;;;;;5022441;28;20053;-44
2023/06/20 12:26:42;;;;;;;2.55;2.35;;;33.70;41.00;;;;;;5029921;28;20042;-43
2023/06/20 12:29:08;;;;;;;2.88;2.60;;;33.80;40.80;;;;;;5023368;28;20529;-43
2023/06/20 12:31:38;;;;;;;3.45;3.15;;;33.90;40.10;;;;;;5029902;28;20137;-45
2023/06/20 12:34:07;;;;;;;2.88;2.67;;;34.00;40.40;;;;;;5031368;28;20573;-46
2023/06/20 12:36:34;;;;;;;3.20;2.90;;;34.20;39.60;;;;;;5027360;28;20413;-44
2023/06/20 12:39:01;;;;;;;2.90;2.70;;;34.40;40.50;;;;;;5027526;28;20042;-44
2023/06/20 12:41:36;;;;;;;2.28;2.17;;;34.50;40.20;;;;;;5023686;28;20037;-44
2023/06/20 12:44:04;;;;;;;2.38;2.28;;;34.60;38.90;;;;;;5023140;28;20534;-46
2023/06/20 12:46:33;;;;;;;2.63;2.42;;;34.80;39.30;;;;;;5024778;28;20521;-46
2023/06/20 12:48:59;;;;;;;2.90;2.70;;;35.00;39.60;;;;;;5022446;28;20037;-47
2023/06/20 12:51:29;;;;;;;3.08;2.60;;;35.10;38.90;;;;;;5023572;28;20037;-47
2023/06/20 12:53:57;;;;;;;2.72;2.53;;;35.20;38.30;;;;;;5023077;28;20038;-46
2023/06/20 12:56:25;;;;;;;4.10;2.40;;;35.40;38.00;;;;;;5024047;28;20060;-45
2023/06/20 12:58:57;;;;;;;2.55;2.35;;;35.40;38.00;;;;;;5022509;28;20524;-44
2023/06/20 13:01:24;;;;;;;2.70;2.50;;;35.60;37.90;;;;;;5021948;28;20069;-49
2023/06/20 13:03:51;;;;;;;2.83;2.53;;;35.70;37.60;;;;;;5024634;28;20049;-44
2023/06/20 13:06:23;;;;;;;2.97;2.78;;;35.80;37.40;;;;;;5021826;28;20042;-45